Geronimo, Oklahoma
Current Conditions -  °F | °C
As of 1:53 PM on Thursday 30 Oct 2014 (Local Time) from KLAW Reporting Station
Clear Clear  
Wind Chill: 77°   Ceiling: Unl
Heat Index: 78°   Visibility: 10mi
Dew Point: 53°   Wind: 7mph
Humidity: 43%   Direction: 330°NNW
Pressure: 30.12"   Gusts: NA
Location:  34.48°N, 98.38°W
Report Text: KLAW 301853Z 33006KT 10SM CLR 25/12 A3012 RMK AO2 SLP194 T02500117
Loading
Personal Weather Stations






























Interactive Weather Map
Tropical Storm Tracking
New forecast layout! Learn more

10-Day Weather Forecast

Advertisements
Track Severe Weather on mobile